sensor_id;sensor_type;location;lat;lon;timestamp;temperature;humidity
26947;DHT22;14501;52.282;10.560;2023-03-14T00:03:11;10.60;99.90
26947;DHT22;14501;52.282;10.560;2023-03-14T00:05:37;10.70;99.90
26947;DHT22;14501;52.282;10.560;2023-03-14T00:08:02;10.80;99.90
26947;DHT22;14501;52.282;10.560;2023-03-14T00:10:28;10.70;99.90
26947;DHT22;14501;52.282;10.560;2023-03-14T00:12:53;10.70;99.90
26947;DHT22;14501;52.282;10.560;2023-03-14T00:15:19;10.80;99.90
26947;DHT22;14501;52.282;10.560;2023-03-14T00:17:45;10.80;99.90
26947;DHT22;14501;52.282;10.560;2023-03-14T00:20:11;10.90;99.90
26947;DHT22;14501;52.282;10.560;2023-03-14T00:22:38;10.90;99.90
26947;DHT22;14501;52.282;10.560;2023-03-14T00:25:04;10.90;99.90
26947;DHT22;14501;52.282;10.560;2023-03-14T00:27:31;10.90;99.90
26947;DHT22;14501;52.282;10.560;2023-03-14T00:29:57;11.10;99.90
26947;DHT22;14501;52.282;10.560;2023-03-14T00:32:22;10.90;99.90
26947;DHT22;14501;52.282;10.560;2023-03-14T00:34:49;11.00;99.90
26947;DHT22;14501;52.282;10.560;2023-03-14T00:37:14;11.00;99.90
26947;DHT22;14501;52.282;10.560;2023-03-14T00:39:40;11.10;99.90
26947;DHT22;14501;52.282;10.560;2023-03-14T00:42:05;11.10;99.90
26947;DHT22;14501;52.282;10.560;2023-03-14T00:44:31;11.20;99.90
26947;DHT22;14501;52.282;10.560;2023-03-14T00:46:57;11.20;99.90
26947;DHT22;14501;52.282;10.560;2023-03-14T00:49:23;11.30;99.90
26947;DHT22;14501;52.282;10.560;2023-03-14T00:51:48;11.30;99.90
26947;DHT22;14501;52.282;10.560;2023-03-14T00:54:14;11.30;99.90
26947;DHT22;14501;52.282;10.560;2023-03-14T00:56:40;11.30;99.90
26947;DHT22;14501;52.282;10.560;2023-03-14T00:59:05;11.60;99.90
26947;DHT22;14501;52.282;10.560;2023-03-14T01:01:31;11.20;99.90
26947;DHT22;14501;52.282;10.560;2023-03-14T01:03:56;11.30;99.90
26947;DHT22;14501;52.282;10.560;2023-03-14T01:06:25;11.30;99.90
26947;DHT22;14501;52.282;10.560;2023-03-14T01:08:51;11.20;99.90
26947;DHT22;14501;52.282;10.560;2023-03-14T01:11:20;11.30;99.90
26947;DHT22;14501;52.282;10.560;2023-03-14T01:13:46;11.30;99.90
26947;DHT22;14501;52.282;10.560;2023-03-14T01:16:12;11.40;99.90
26947;DHT22;14501;52.282;10.560;2023-03-14T01:18:39;11.30;99.90
26947;DHT22;14501;52.282;10.560;2023-03-14T01:21:18;11.40;99.90
26947;DHT22;14501;52.282;10.560;2023-03-14T01:23:44;11.30;99.90
26947;DHT22;14501;52.282;10.560;2023-03-14T01:26:15;11.30;99.90
26947;DHT22;14501;52.282;10.560;2023-03-14T01:28:41;11.30;99.90
26947;DHT22;14501;52.282;10.560;2023-03-14T01:31:09;11.30;99.90
26947;DHT22;14501;52.282;10.560;2023-03-14T01:33:36;11.40;99.90
26947;DHT22;14501;52.282;10.560;2023-03-14T01:36:03;11.30;99.90
26947;DHT22;14501;52.282;10.560;2023-03-14T01:38:30;11.30;99.90
26947;DHT22;14501;52.282;10.560;2023-03-14T01:40:56;11.30;99.90
26947;DHT22;14501;52.282;10.560;2023-03-14T01:43:22;11.30;99.90
26947;DHT22;14501;52.282;10.560;2023-03-14T01:48:40;11.30;99.90
26947;DHT22;14501;52.282;10.560;2023-03-14T01:51:10;11.30;99.90
26947;DHT22;14501;52.282;10.560;2023-03-14T01:53:39;11.20;99.90
26947;DHT22;14501;52.282;10.560;2023-03-14T01:56:07;11.30;99.90
26947;DHT22;14501;52.282;10.560;2023-03-14T01:58:33;11.30;99.90
26947;DHT22;14501;52.282;10.560;2023-03-14T02:01:03;11.20;99.90
26947;DHT22;14501;52.282;10.560;2023-03-14T02:06:00;11.20;99.90
26947;DHT22;14501;52.282;10.560;2023-03-14T02:08:29;11.20;99.90
26947;DHT22;14501;52.282;10.560;2023-03-14T02:10:56;11.10;99.90
26947;DHT22;14501;52.282;10.560;2023-03-14T02:13:22;11.20;99.90
26947;DHT22;14501;52.282;10.560;2023-03-14T02:15:48;11.10;99.90
26947;DHT22;14501;52.282;10.560;2023-03-14T02:18:16;11.10;99.90
26947;DHT22;14501;52.282;10.560;2023-03-14T02:26:24;10.90;99.90
26947;DHT22;14501;52.282;10.560;2023-03-14T02:28:51;10.80;99.90
26947;DHT22;14501;52.282;10.560;2023-03-14T02:31:20;10.80;99.90
26947;DHT22;14501;52.282;10.560;2023-03-14T02:33:47;10.70;99.90
26947;DHT22;14501;52.282;10.560;2023-03-14T02:36:14;10.70;99.90
26947;DHT22;14501;52.282;10.560;2023-03-14T02:38:55;10.70;99.90
26947;DHT22;14501;52.282;10.560;2023-03-14T02:41:21;10.70;99.90
26947;DHT22;14501;52.282;10.560;2023-03-14T02:43:46;10.90;99.90
26947;DHT22;14501;52.282;10.560;2023-03-14T02:46:14;10.70;99.90
26947;DHT22;14501;52.282;10.560;2023-03-14T02:48:54;10.70;99.90
26947;DHT22;14501;52.282;10.560;2023-03-14T02:51:22;10.80;99.90
26947;DHT22;14501;52.282;10.560;2023-03-14T02:53:49;10.80;99.90
26947;DHT22;14501;52.282;10.560;2023-03-14T02:56:14;10.80;99.90
26947;DHT22;14501;52.282;10.560;2023-03-14T02:58:40;10.90;99.90
26947;DHT22;14501;52.282;10.560;2023-03-14T03:01:06;10.80;99.90
26947;DHT22;14501;52.282;10.560;2023-03-14T03:03:32;10.80;99.90
26947;DHT22;14501;52.282;10.560;2023-03-14T03:05:58;10.90;99.90
26947;DHT22;14501;52.282;10.560;2023-03-14T03:08:25;10.90;99.90
26947;DHT22;14501;52.282;10.560;2023-03-14T03:10:52;10.70;99.90
26947;DHT22;14501;52.282;10.560;2023-03-14T03:13:18;10.70;99.90
26947;DHT22;14501;52.282;10.560;2023-03-14T03:15:44;10.70;99.90
26947;DHT22;14501;52.282;10.560;2023-03-14T03:18:10;10.70;99.90
26947;DHT22;14501;52.282;10.560;2023-03-14T03:20:36;10.60;99.90
26947;DHT22;14501;52.282;10.560;2023-03-14T03:23:02;10.60;99.90
26947;DHT22;14501;52.282;10.560;2023-03-14T03:25:28;10.50;99.90
26947;DHT22;14501;52.282;10.560;2023-03-14T03:30:20;10.60;99.90
26947;DHT22;14501;52.282;10.560;2023-03-14T03:32:46;10.60;99.90
26947;DHT22;14501;52.282;10.560;2023-03-14T03:35:12;10.70;99.90
26947;DHT22;14501;52.282;10.560;2023-03-14T03:40:05;10.60;99.90
26947;DHT22;14501;52.282;10.560;2023-03-14T03:42:32;10.60;99.90
26947;DHT22;14501;52.282;10.560;2023-03-14T03:44:58;10.60;99.90
26947;DHT22;14501;52.282;10.560;2023-03-14T03:47:24;10.90;99.90
26947;DHT22;14501;52.282;10.560;2023-03-14T03:52:15;10.40;99.90
26947;DHT22;14501;52.282;10.560;2023-03-14T03:54:41;10.40;99.90
26947;DHT22;14501;52.282;10.560;2023-03-14T03:57:06;10.40;99.90
26947;DHT22;14501;52.282;10.560;2023-03-14T03:59:32;10.30;99.90
26947;DHT22;14501;52.282;10.560;2023-03-14T04:01:58;10.40;99.90
26947;DHT22;14501;52.282;10.560;2023-03-14T04:04:23;10.40;99.90
26947;DHT22;14501;52.282;10.560;2023-03-14T04:06:49;11.20;99.90
26947;DHT22;14501;52.282;10.560;2023-03-14T04:09:14;10.30;99.90
26947;DHT22;14501;52.282;10.560;2023-03-14T04:11:40;10.20;99.90
26947;DHT22;14501;52.282;10.560;2023-03-14T04:14:07;10.50;99.90
26947;DHT22;14501;52.282;10.560;2023-03-14T04:16:33;10.20;99.90
26947;DHT22;14501;52.282;10.560;2023-03-14T04:18:59;10.20;99.90
26947;DHT22;14501;52.282;10.560;2023-03-14T04:21:25;10.20;99.90
26947;DHT22;14501;52.282;10.560;2023-03-14T04:23:50;10.40;99.90
26947;DHT22;14501;52.282;10.560;2023-03-14T04:26:16;10.30;99.90
26947;DHT22;14501;52.282;10.560;2023-03-14T04:28:42;10.40;99.90
26947;DHT22;14501;52.282;10.560;2023-03-14T04:31:13;10.30;99.90
26947;DHT22;14501;52.282;10.560;2023-03-14T04:33:38;10.30;99.90
26947;DHT22;14501;52.282;10.560;2023-03-14T04:36:05;10.30;99.90
26947;DHT22;14501;52.282;10.560;2023-03-14T04:40:57;10.30;99.90
26947;DHT22;14501;52.282;10.560;2023-03-14T04:48:16;10.20;99.90
26947;DHT22;14501;52.282;10.560;2023-03-14T04:50:42;10.20;99.90
26947;DHT22;14501;52.282;10.560;2023-03-14T04:53:08;10.50;99.90
26947;DHT22;14501;52.282;10.560;2023-03-14T04:55:33;10.40;99.90
26947;DHT22;14501;52.282;10.560;2023-03-14T04:58:00;10.40;99.90
26947;DHT22;14501;52.282;10.560;2023-03-14T05:00:25;10.40;99.90
26947;DHT22;14501;52.282;10.560;2023-03-14T05:02:51;11.70;99.90
26947;DHT22;14501;52.282;10.560;2023-03-14T05:07:42;10.50;99.90
26947;DHT22;14501;52.282;10.560;2023-03-14T05:10:09;10.40;99.90
26947;DHT22;14501;52.282;10.560;2023-03-14T05:12:35;10.30;99.90
26947;DHT22;14501;52.282;10.560;2023-03-14T05:15:00;10.20;99.90
26947;DHT22;14501;52.282;10.560;2023-03-14T05:17:26;10.30;99.90
26947;DHT22;14501;52.282;10.560;2023-03-14T05:19:51;10.20;99.90
26947;DHT22;14501;52.282;10.560;2023-03-14T05:22:17;10.10;99.90
26947;DHT22;14501;52.282;10.560;2023-03-14T05:24:43;10.10;99.90
26947;DHT22;14501;52.282;10.560;2023-03-14T05:27:08;10.30;99.90
26947;DHT22;14501;52.282;10.560;2023-03-14T05:32:00;9.80;99.90
26947;DHT22;14501;52.282;10.560;2023-03-14T05:36:51;9.80;99.90
26947;DHT22;14501;52.282;10.560;2023-03-14T05:39:17;9.70;99.90
26947;DHT22;14501;52.282;10.560;2023-03-14T05:41:42;9.70;99.90
26947;DHT22;14501;52.282;10.560;2023-03-14T05:44:08;9.70;99.90
26947;DHT22;14501;52.282;10.560;2023-03-14T05:46:33;9.50;99.90
26947;DHT22;14501;52.282;10.560;2023-03-14T05:48:59;10.10;99.90
26947;DHT22;14501;52.282;10.560;2023-03-14T05:51:25;9.80;99.90
26947;DHT22;14501;52.282;10.560;2023-03-14T05:53:51;9.90;99.90
26947;DHT22;14501;52.282;10.560;2023-03-14T05:56:17;9.60;99.90
26947;DHT22;14501;52.282;10.560;2023-03-14T05:58:43;10.10;99.90
26947;DHT22;14501;52.282;10.560;2023-03-14T06:01:08;10.30;99.90
26947;DHT22;14501;52.282;10.560;2023-03-14T06:03:34;9.60;99.90
26947;DHT22;14501;52.282;10.560;2023-03-14T06:06:00;9.50;99.90
26947;DHT22;14501;52.282;10.560;2023-03-14T06:08:25;9.50;99.90
26947;DHT22;14501;52.282;10.560;2023-03-14T06:10:52;9.70;99.90
26947;DHT22;14501;52.282;10.560;2023-03-14T06:13:18;9.80;99.90
26947;DHT22;14501;52.282;10.560;2023-03-14T06:15:44;9.90;99.90
26947;DHT22;14501;52.282;10.560;2023-03-14T06:18:10;9.90;99.90
26947;DHT22;14501;52.282;10.560;2023-03-14T06:20:36;9.90;99.90
26947;DHT22;14501;52.282;10.560;2023-03-14T06:23:04;9.90;99.90
26947;DHT22;14501;52.282;10.560;2023-03-14T06:25:31;9.80;99.90
26947;DHT22;14501;52.282;10.560;2023-03-14T06:27:56;9.80;99.90
26947;DHT22;14501;52.282;10.560;2023-03-14T06:30:22;10.80;99.90
26947;DHT22;14501;52.282;10.560;2023-03-14T06:32:48;10.30;99.90
26947;DHT22;14501;52.282;10.560;2023-03-14T06:35:13;9.90;99.90
26947;DHT22;14501;52.282;10.560;2023-03-14T06:37:39;9.90;99.90
26947;DHT22;14501;52.282;10.560;2023-03-14T06:40:05;9.90;99.90
26947;DHT22;14501;52.282;10.560;2023-03-14T06:42:32;9.90;99.90
26947;DHT22;14501;52.282;10.560;2023-03-14T06:44:58;9.90;99.90
26947;DHT22;14501;52.282;10.560;2023-03-14T06:47:24;9.70;99.90
26947;DHT22;14501;52.282;10.560;2023-03-14T06:49:49;9.90;99.90
26947;DHT22;14501;52.282;10.560;2023-03-14T06:52:15;10.00;99.90
26947;DHT22;14501;52.282;10.560;2023-03-14T06:54:41;10.10;99.90
26947;DHT22;14501;52.282;10.560;2023-03-14T06:57:06;10.40;99.90
26947;DHT22;14501;52.282;10.560;2023-03-14T06:59:32;10.30;99.90
26947;DHT22;14501;52.282;10.560;2023-03-14T07:01:57;10.70;99.90
26947;DHT22;14501;52.282;10.560;2023-03-14T07:04:23;11.20;99.90
26947;DHT22;14501;52.282;10.560;2023-03-14T07:06:48;11.10;99.90
26947;DHT22;14501;52.282;10.560;2023-03-14T07:09:15;11.20;99.90
26947;DHT22;14501;52.282;10.560;2023-03-14T07:16:34;12.00;99.90
26947;DHT22;14501;52.282;10.560;2023-03-14T07:19:01;12.30;99.90
26947;DHT22;14501;52.282;10.560;2023-03-14T07:38:29;12.60;99.90
26947;DHT22;14501;52.282;10.560;2023-03-14T07:41:02;12.70;99.90
26947;DHT22;14501;52.282;10.560;2023-03-14T07:43:28;12.80;99.90
26947;DHT22;14501;52.282;10.560;2023-03-14T07:45:54;12.80;99.90
26947;DHT22;14501;52.282;10.560;2023-03-14T07:48:19;12.60;99.90
26947;DHT22;14501;52.282;10.560;2023-03-14T07:50:50;12.60;99.90
26947;DHT22;14501;52.282;10.560;2023-03-14T07:55:42;12.40;99.90
26947;DHT22;14501;52.282;10.560;2023-03-14T07:58:08;12.80;99.90
26947;DHT22;14501;52.282;10.560;2023-03-14T08:00:34;12.70;99.90
26947;DHT22;14501;52.282;10.560;2023-03-14T08:02:59;12.70;99.90
26947;DHT22;14501;52.282;10.560;2023-03-14T08:05:26;13.10;99.90
26947;DHT22;14501;52.282;10.560;2023-03-14T08:07:51;13.30;99.90
26947;DHT22;14501;52.282;10.560;2023-03-14T08:10:17;13.30;99.90
26947;DHT22;14501;52.282;10.560;2023-03-14T08:12:46;13.20;99.90
26947;DHT22;14501;52.282;10.560;2023-03-14T08:15:12;13.20;99.90
26947;DHT22;14501;52.282;10.560;2023-03-14T08:17:37;13.00;99.90
26947;DHT22;14501;52.282;10.560;2023-03-14T08:20:03;13.10;99.90
26947;DHT22;14501;52.282;10.560;2023-03-14T08:22:33;13.20;99.90
26947;DHT22;14501;52.282;10.560;2023-03-14T08:24:58;13.70;99.90
26947;DHT22;14501;52.282;10.560;2023-03-14T08:27:24;13.90;99.90
26947;DHT22;14501;52.282;10.560;2023-03-14T08:29:49;14.40;99.90
26947;DHT22;14501;52.282;10.560;2023-03-14T08:32:15;14.80;99.90
26947;DHT22;14501;52.282;10.560;2023-03-14T08:34:41;16.60;99.90
26947;DHT22;14501;52.282;10.560;2023-03-14T08:37:06;17.10;99.90
26947;DHT22;14501;52.282;10.560;2023-03-14T08:39:32;19.10;99.90
26947;DHT22;14501;52.282;10.560;2023-03-14T08:41:57;19.50;99.90
26947;DHT22;14501;52.282;10.560;2023-03-14T08:44:23;18.80;99.90
26947;DHT22;14501;52.282;10.560;2023-03-14T08:46:48;17.60;99.90
26947;DHT22;14501;52.282;10.560;2023-03-14T08:49:14;16.40;99.90
26947;DHT22;14501;52.282;10.560;2023-03-14T08:51:40;15.60;99.90
26947;DHT22;14501;52.282;10.560;2023-03-14T08:54:05;14.90;99.90
26947;DHT22;14501;52.282;10.560;2023-03-14T08:56:31;14.80;99.90
26947;DHT22;14501;52.282;10.560;2023-03-14T08:58:57;15.10;99.90
26947;DHT22;14501;52.282;10.560;2023-03-14T09:01:22;14.90;99.90
26947;DHT22;14501;52.282;10.560;2023-03-14T09:03:50;14.80;99.90
26947;DHT22;14501;52.282;10.560;2023-03-14T09:06:16;14.50;99.90
26947;DHT22;14501;52.282;10.560;2023-03-14T09:08:45;14.40;99.90
26947;DHT22;14501;52.282;10.560;2023-03-14T09:11:11;14.10;99.90
26947;DHT22;14501;52.282;10.560;2023-03-14T09:13:37;14.00;99.90
26947;DHT22;14501;52.282;10.560;2023-03-14T09:16:04;13.80;99.90
26947;DHT22;14501;52.282;10.560;2023-03-14T09:18:29;13.70;99.90
26947;DHT22;14501;52.282;10.560;2023-03-14T09:20:55;13.60;99.90
26947;DHT22;14501;52.282;10.560;2023-03-14T09:23:21;13.70;99.90
26947;DHT22;14501;52.282;10.560;2023-03-14T09:25:47;13.70;99.90
26947;DHT22;14501;52.282;10.560;2023-03-14T09:28:12;13.60;99.90
26947;DHT22;14501;52.282;10.560;2023-03-14T09:30:38;13.50;99.90
26947;DHT22;14501;52.282;10.560;2023-03-14T09:33:04;13.40;99.90
26947;DHT22;14501;52.282;10.560;2023-03-14T09:35:30;13.20;99.90
26947;DHT22;14501;52.282;10.560;2023-03-14T09:37:55;13.20;99.90
26947;DHT22;14501;52.282;10.560;2023-03-14T09:40:21;13.10;99.90
26947;DHT22;14501;52.282;10.560;2023-03-14T09:42:51;13.10;99.90
26947;DHT22;14501;52.282;10.560;2023-03-14T09:45:25;13.70;99.90
26947;DHT22;14501;52.282;10.560;2023-03-14T09:47:51;13.90;99.90
26947;DHT22;14501;52.282;10.560;2023-03-14T09:50:17;15.30;99.90
26947;DHT22;14501;52.282;10.560;2023-03-14T09:52:46;17.60;99.90
26947;DHT22;14501;52.282;10.560;2023-03-14T09:55:16;19.20;99.90
26947;DHT22;14501;52.282;10.560;2023-03-14T09:57:43;18.80;99.90
26947;DHT22;14501;52.282;10.560;2023-03-14T10:00:18;18.30;99.90
26947;DHT22;14501;52.282;10.560;2023-03-14T10:02:53;17.10;99.90
26947;DHT22;14501;52.282;10.560;2023-03-14T10:05:22;15.50;99.90
26947;DHT22;14501;52.282;10.560;2023-03-14T10:07:48;15.10;99.90
26947;DHT22;14501;52.282;10.560;2023-03-14T10:10:18;15.00;99.90
26947;DHT22;14501;52.282;10.560;2023-03-14T10:12:46;15.10;99.90
26947;DHT22;14501;52.282;10.560;2023-03-14T10:15:14;15.30;99.90
26947;DHT22;14501;52.282;10.560;2023-03-14T10:17:52;15.50;99.90
26947;DHT22;14501;52.282;10.560;2023-03-14T10:20:37;15.80;99.90
26947;DHT22;14501;52.282;10.560;2023-03-14T10:25:40;15.30;99.90
26947;DHT22;14501;52.282;10.560;2023-03-14T10:28:30;15.30;99.90
26947;DHT22;14501;52.282;10.560;2023-03-14T10:30:57;15.10;99.90
26947;DHT22;14501;52.282;10.560;2023-03-14T10:33:32;14.60;99.90
26947;DHT22;14501;52.282;10.560;2023-03-14T10:36:03;14.50;99.90
26947;DHT22;14501;52.282;10.560;2023-03-14T10:38:33;14.50;99.90
26947;DHT22;14501;52.282;10.560;2023-03-14T10:40:59;14.60;99.90
26947;DHT22;14501;52.282;10.560;2023-03-14T10:43:34;14.60;99.90
26947;DHT22;14501;52.282;10.560;2023-03-14T10:46:05;14.70;99.90
26947;DHT22;14501;52.282;10.560;2023-03-14T10:48:36;14.50;99.90
26947;DHT22;14501;52.282;10.560;2023-03-14T10:53:45;14.80;99.90
26947;DHT22;14501;52.282;10.560;2023-03-14T10:56:22;16.20;99.90
26947;DHT22;14501;52.282;10.560;2023-03-14T10:58:52;16.90;99.90
26947;DHT22;14501;52.282;10.560;2023-03-14T11:01:44;17.50;99.90
26947;DHT22;14501;52.282;10.560;2023-03-14T11:07:08;17.80;99.90
26947;DHT22;14501;52.282;10.560;2023-03-14T11:17:46;16.50;99.90
26947;DHT22;14501;52.282;10.560;2023-03-14T11:23:02;15.90;99.90
26947;DHT22;14501;52.282;10.560;2023-03-14T11:28:37;15.30;99.90
26947;DHT22;14501;52.282;10.560;2023-03-14T11:31:19;15.40;99.90
26947;DHT22;14501;52.282;10.560;2023-03-14T11:33:47;15.50;99.90
26947;DHT22;14501;52.282;10.560;2023-03-14T11:36:21;15.30;99.90
26947;DHT22;14501;52.282;10.560;2023-03-14T11:38:51;15.10;99.90
26947;DHT22;14501;52.282;10.560;2023-03-14T11:41:29;14.80;99.90
26947;DHT22;14501;52.282;10.560;2023-03-14T11:43:57;14.60;99.90
26947;DHT22;14501;52.282;10.560;2023-03-14T11:46:36;14.40;99.90
26947;DHT22;14501;52.282;10.560;2023-03-14T11:51:53;14.10;99.90
26947;DHT22;14501;52.282;10.560;2023-03-14T11:57:11;14.10;99.90
26947;DHT22;14501;52.282;10.560;2023-03-14T12:03:00;14.70;99.90
26947;DHT22;14501;52.282;10.560;2023-03-14T12:05:43;14.70;99.90
26947;DHT22;14501;52.282;10.560;2023-03-14T12:13:34;13.80;99.90
26947;DHT22;14501;52.282;10.560;2023-03-14T12:16:06;13.70;99.90
26947;DHT22;14501;52.282;10.560;2023-03-14T12:18:37;13.50;99.90
26947;DHT22;14501;52.282;10.560;2023-03-14T12:21:09;13.80;99.90
26947;DHT22;14501;52.282;10.560;2023-03-14T12:24:02;13.10;99.90
26947;DHT22;14501;52.282;10.560;2023-03-14T12:26:58;11.90;99.90
26947;DHT22;14501;52.282;10.560;2023-03-14T12:29:24;11.00;99.90
26947;DHT22;14501;52.282;10.560;2023-03-14T12:34:30;9.40;99.90
26947;DHT22;14501;52.282;10.560;2023-03-14T12:39:56;8.80;99.90
26947;DHT22;14501;52.282;10.560;2023-03-14T12:45:36;8.30;99.90
26947;DHT22;14501;52.282;10.560;2023-03-14T12:48:10;8.10;99.90
26947;DHT22;14501;52.282;10.560;2023-03-14T12:51:00;8.00;99.90
26947;DHT22;14501;52.282;10.560;2023-03-14T12:53:50;8.00;99.90
26947;DHT22;14501;52.282;10.560;2023-03-14T12:59:33;7.60;99.90
26947;DHT22;14501;52.282;10.560;2023-03-14T13:04:44;7.10;99.90
26947;DHT22;14501;52.282;10.560;2023-03-14T13:10:16;6.80;99.90
26947;DHT22;14501;52.282;10.560;2023-03-14T13:13:01;6.50;99.90
26947;DHT22;14501;52.282;10.560;2023-03-14T13:15:34;6.20;99.90
26947;DHT22;14501;52.282;10.560;2023-03-14T13:18:26;6.20;99.90
26947;DHT22;14501;52.282;10.560;2023-03-14T13:21:16;6.10;99.90
26947;DHT22;14501;52.282;10.560;2023-03-14T13:24:01;6.10;99.90
26947;DHT22;14501;52.282;10.560;2023-03-14T13:26:42;6.10;99.90
26947;DHT22;14501;52.282;10.560;2023-03-14T13:29:20;6.00;99.90
26947;DHT22;14501;52.282;10.560;2023-03-14T13:31:48;5.90;99.90
26947;DHT22;14501;52.282;10.560;2023-03-14T13:34:14;5.80;99.90
26947;DHT22;14501;52.282;10.560;2023-03-14T13:36:40;5.80;99.90
26947;DHT22;14501;52.282;10.560;2023-03-14T13:39:21;6.10;99.90
26947;DHT22;14501;52.282;10.560;2023-03-14T13:41:51;5.60;99.90
26947;DHT22;14501;52.282;10.560;2023-03-14T13:46:46;5.70;99.90
26947;DHT22;14501;52.282;10.560;2023-03-14T13:49:22;5.50;99.90
26947;DHT22;14501;52.282;10.560;2023-03-14T13:51:49;5.40;99.90
26947;DHT22;14501;52.282;10.560;2023-03-14T13:54:17;5.30;99.90
26947;DHT22;14501;52.282;10.560;2023-03-14T13:56:43;5.20;99.90
26947;DHT22;14501;52.282;10.560;2023-03-14T13:59:29;4.90;99.90
26947;DHT22;14501;52.282;10.560;2023-03-14T14:01:55;6.20;99.90
26947;DHT22;14501;52.282;10.560;2023-03-14T14:04:23;5.00;99.90
26947;DHT22;14501;52.282;10.560;2023-03-14T14:09:45;5.10;99.90
26947;DHT22;14501;52.282;10.560;2023-03-14T14:12:15;5.10;99.90
26947;DHT22;14501;52.282;10.560;2023-03-14T14:17:18;5.20;99.90
26947;DHT22;14501;52.282;10.560;2023-03-14T14:19:45;5.10;99.90
26947;DHT22;14501;52.282;10.560;2023-03-14T14:22:11;5.20;99.90
26947;DHT22;14501;52.282;10.560;2023-03-14T14:24:37;5.20;99.90
26947;DHT22;14501;52.282;10.560;2023-03-14T14:27:18;5.20;99.90
26947;DHT22;14501;52.282;10.560;2023-03-14T14:32:47;4.90;99.90
26947;DHT22;14501;52.282;10.560;2023-03-14T14:35:33;5.00;99.90
26947;DHT22;14501;52.282;10.560;2023-03-14T14:37:59;5.00;99.90
26947;DHT22;14501;52.282;10.560;2023-03-14T14:40:29;5.10;99.90
26947;DHT22;14501;52.282;10.560;2023-03-14T14:43:02;5.10;99.90
26947;DHT22;14501;52.282;10.560;2023-03-14T14:45:28;5.10;99.90
26947;DHT22;14501;52.282;10.560;2023-03-14T14:47:58;6.00;99.90
26947;DHT22;14501;52.282;10.560;2023-03-14T14:50:32;5.20;99.90
26947;DHT22;14501;52.282;10.560;2023-03-14T14:52:59;5.40;99.90
26947;DHT22;14501;52.282;10.560;2023-03-14T14:55:32;5.20;99.90
26947;DHT22;14501;52.282;10.560;2023-03-14T14:58:17;5.30;99.90
26947;DHT22;14501;52.282;10.560;2023-03-14T15:00:51;5.30;99.90
26947;DHT22;14501;52.282;10.560;2023-03-14T15:03:17;5.20;99.90
26947;DHT22;14501;52.282;10.560;2023-03-14T15:08:12;5.00;99.90
26947;DHT22;14501;52.282;10.560;2023-03-14T15:10:38;5.90;99.90
26947;DHT22;14501;52.282;10.560;2023-03-14T15:13:04;4.60;99.90
26947;DHT22;14501;52.282;10.560;2023-03-14T15:15:30;4.90;99.90
26947;DHT22;14501;52.282;10.560;2023-03-14T15:17:56;4.90;99.90
26947;DHT22;14501;52.282;10.560;2023-03-14T15:20:21;5.00;99.90
26947;DHT22;14501;52.282;10.560;2023-03-14T15:22:49;5.30;99.90
26947;DHT22;14501;52.282;10.560;2023-03-14T15:27:40;5.30;99.90
26947;DHT22;14501;52.282;10.560;2023-03-14T15:30:12;5.60;99.90
26947;DHT22;14501;52.282;10.560;2023-03-14T15:32:38;5.40;99.90
26947;DHT22;14501;52.282;10.560;2023-03-14T15:35:04;5.40;99.90
26947;DHT22;14501;52.282;10.560;2023-03-14T15:37:30;5.40;99.90
26947;DHT22;14501;52.282;10.560;2023-03-14T15:39:56;5.40;99.90
26947;DHT22;14501;52.282;10.560;2023-03-14T15:42:24;5.50;99.90
26947;DHT22;14501;52.282;10.560;2023-03-14T15:47:16;5.40;99.90
26947;DHT22;14501;52.282;10.560;2023-03-14T15:49:42;5.40;99.90
26947;DHT22;14501;52.282;10.560;2023-03-14T15:52:08;5.30;99.90
26947;DHT22;14501;52.282;10.560;2023-03-14T15:54:34;5.50;99.90
26947;DHT22;14501;52.282;10.560;2023-03-14T15:57:00;5.40;99.90
26947;DHT22;14501;52.282;10.560;2023-03-14T16:04:18;5.40;99.90
26947;DHT22;14501;52.282;10.560;2023-03-14T16:06:44;5.40;99.90
26947;DHT22;14501;52.282;10.560;2023-03-14T16:09:13;5.50;99.90
26947;DHT22;14501;52.282;10.560;2023-03-14T16:11:39;5.50;99.90
26947;DHT22;14501;52.282;10.560;2023-03-14T16:14:05;5.60;99.90
26947;DHT22;14501;52.282;10.560;2023-03-14T16:16:31;5.60;99.90
26947;DHT22;14501;52.282;10.560;2023-03-14T16:18:57;5.70;99.90
26947;DHT22;14501;52.282;10.560;2023-03-14T16:21:22;5.80;99.90
26947;DHT22;14501;52.282;10.560;2023-03-14T16:23:48;5.80;99.90
26947;DHT22;14501;52.282;10.560;2023-03-14T16:26:19;6.70;99.90
26947;DHT22;14501;52.282;10.560;2023-03-14T16:28:46;6.10;99.90
26947;DHT22;14501;52.282;10.560;2023-03-14T16:31:14;5.90;99.90
26947;DHT22;14501;52.282;10.560;2023-03-14T16:33:41;5.90;99.90
26947;DHT22;14501;52.282;10.560;2023-03-14T16:36:08;5.80;99.90
26947;DHT22;14501;52.282;10.560;2023-03-14T16:38:36;5.80;99.90
26947;DHT22;14501;52.282;10.560;2023-03-14T16:41:08;5.60;99.90
26947;DHT22;14501;52.282;10.560;2023-03-14T16:46:05;5.30;99.90
26947;DHT22;14501;52.282;10.560;2023-03-14T16:50:57;5.10;99.90
26947;DHT22;14501;52.282;10.560;2023-03-14T16:53:23;4.80;99.90
26947;DHT22;14501;52.282;10.560;2023-03-14T16:55:50;4.80;99.90
26947;DHT22;14501;52.282;10.560;2023-03-14T16:58:16;4.80;99.90
26947;DHT22;14501;52.282;10.560;2023-03-14T17:00:44;4.70;99.90
26947;DHT22;14501;52.282;10.560;2023-03-14T17:03:11;4.70;99.90
26947;DHT22;14501;52.282;10.560;2023-03-14T17:08:03;4.50;99.90
26947;DHT22;14501;52.282;10.560;2023-03-14T17:10:29;4.50;99.90
26947;DHT22;14501;52.282;10.560;2023-03-14T17:12:54;4.40;99.90
26947;DHT22;14501;52.282;10.560;2023-03-14T17:15:20;4.40;99.90
26947;DHT22;14501;52.282;10.560;2023-03-14T17:17:46;4.40;99.90
26947;DHT22;14501;52.282;10.560;2023-03-14T17:20:11;4.30;99.90
26947;DHT22;14501;52.282;10.560;2023-03-14T17:25:03;4.20;99.90
26947;DHT22;14501;52.282;10.560;2023-03-14T17:27:29;4.10;99.90
26947;DHT22;14501;52.282;10.560;2023-03-14T17:32:21;4.10;99.90
26947;DHT22;14501;52.282;10.560;2023-03-14T17:37:12;4.00;99.90
26947;DHT22;14501;52.282;10.560;2023-03-14T17:39:38;3.90;99.90
26947;DHT22;14501;52.282;10.560;2023-03-14T17:42:07;6.60;99.90
26947;DHT22;14501;52.282;10.560;2023-03-14T17:44:33;3.90;99.90
26947;DHT22;14501;52.282;10.560;2023-03-14T17:46:59;3.90;99.90
26947;DHT22;14501;52.282;10.560;2023-03-14T17:51:50;3.70;99.90
26947;DHT22;14501;52.282;10.560;2023-03-14T17:56:42;3.50;99.90
26947;DHT22;14501;52.282;10.560;2023-03-14T17:59:17;3.50;99.90
26947;DHT22;14501;52.282;10.560;2023-03-14T18:01:42;3.50;99.90
26947;DHT22;14501;52.282;10.560;2023-03-14T18:04:08;3.50;99.90